createdAt,value
2022-09-20T00:00:45.269Z,11
2022-09-20T00:30:48.424Z,13
2022-09-20T01:00:46.474Z,11
2022-09-20T01:30:45.837Z,11
2022-09-20T02:00:45.336Z,12
2022-09-20T02:30:45.943Z,12
2022-09-20T03:00:48.078Z,13
2022-09-20T03:30:49.443Z,11
2022-09-20T04:00:49.077Z,12
2022-09-20T04:30:47.673Z,14
2022-09-20T05:00:46.915Z,17
2022-09-20T05:30:49.690Z,14
2022-09-20T06:00:59.353Z,17
2022-09-20T07:01:12.874Z,15
2022-09-20T07:31:30.085Z,12
2022-09-20T08:01:38.203Z,12
2022-09-20T08:31:53.537Z,13
2022-09-20T09:02:51.144Z,13
2022-09-20T09:33:21.065Z,14
2022-09-20T10:02:41.516Z,14
2022-09-20T11:02:48.274Z,8
2022-09-20T11:32:19.468Z,8
2022-09-20T12:02:11.547Z,8
2022-09-20T12:32:22.790Z,8
2022-09-20T13:02:28.001Z,10
2022-09-20T13:32:21.641Z,8
2022-09-20T14:02:38.783Z,8
2022-09-20T14:32:26.534Z,11
2022-09-20T15:02:23.168Z,10
2022-09-20T15:32:24.309Z,10
2022-09-20T16:02:23.058Z,9
2022-09-20T16:32:21.145Z,9
2022-09-20T17:02:19.272Z,11
2022-09-20T17:32:21.280Z,11
2022-09-20T18:02:19.193Z,14
2022-09-20T18:32:16.306Z,14
2022-09-20T19:02:14.670Z,18
2022-09-20T19:32:15.170Z,16
2022-09-20T20:02:17.501Z,15
2022-09-20T20:32:17.028Z,18
2022-09-20T21:02:17.331Z,17
2022-09-20T21:32:16.645Z,19
2022-09-20T22:02:16.299Z,14
2022-09-20T22:32:17.677Z,13
2022-09-20T23:02:16.787Z,11
2022-09-20T23:32:15.996Z,12
